sensor_id;sensor_type;location;lat;lon;timestamp;temperature;humidity
19941;DHT22;10132;50.864;5.176;2022-10-22T00:01:21;13.10;99.90
19941;DHT22;10132;50.864;5.176;2022-10-22T00:03:24;13.10;99.90
19941;DHT22;10132;50.864;5.176;2022-10-22T00:05:26;13.20;99.90
19941;DHT22;10132;50.864;5.176;2022-10-22T00:07:28;13.30;99.90
19941;DHT22;10132;50.864;5.176;2022-10-22T00:09:29;13.50;99.90
19941;DHT22;10132;50.864;5.176;2022-10-22T00:11:31;13.60;99.90
19941;DHT22;10132;50.864;5.176;2022-10-22T00:13:35;13.60;99.90
19941;DHT22;10132;50.864;5.176;2022-10-22T00:15:37;13.60;99.90
19941;DHT22;10132;50.864;5.176;2022-10-22T00:17:39;13.70;99.90
19941;DHT22;10132;50.864;5.176;2022-10-22T00:19:40;13.80;99.90
19941;DHT22;10132;50.864;5.176;2022-10-22T00:21:42;13.90;99.90
19941;DHT22;10132;50.864;5.176;2022-10-22T00:23:45;13.90;99.90
19941;DHT22;10132;50.864;5.176;2022-10-22T00:25:47;14.00;99.90
19941;DHT22;10132;50.864;5.176;2022-10-22T00:27:49;14.00;99.90
19941;DHT22;10132;50.864;5.176;2022-10-22T00:29:52;14.00;99.90
19941;DHT22;10132;50.864;5.176;2022-10-22T00:31:54;14.00;99.90
19941;DHT22;10132;50.864;5.176;2022-10-22T00:33:56;14.00;99.90
19941;DHT22;10132;50.864;5.176;2022-10-22T00:35:58;13.90;99.90
19941;DHT22;10132;50.864;5.176;2022-10-22T00:38:00;13.80;99.90
19941;DHT22;10132;50.864;5.176;2022-10-22T00:40:03;13.80;99.90
19941;DHT22;10132;50.864;5.176;2022-10-22T00:42:05;13.90;99.90
19941;DHT22;10132;50.864;5.176;2022-10-22T00:46:26;14.00;99.90
19941;DHT22;10132;50.864;5.176;2022-10-22T00:48:30;14.10;99.90
19941;DHT22;10132;50.864;5.176;2022-10-22T00:50:36;14.10;99.90
19941;DHT22;10132;50.864;5.176;2022-10-22T00:52:39;14.10;99.90
19941;DHT22;10132;50.864;5.176;2022-10-22T00:54:41;14.10;99.90
19941;DHT22;10132;50.864;5.176;2022-10-22T00:56:43;14.10;99.90
19941;DHT22;10132;50.864;5.176;2022-10-22T00:58:48;14.20;99.90
19941;DHT22;10132;50.864;5.176;2022-10-22T01:00:53;14.20;99.90
19941;DHT22;10132;50.864;5.176;2022-10-22T01:02:57;14.30;99.90
19941;DHT22;10132;50.864;5.176;2022-10-22T01:04:59;14.30;99.90
19941;DHT22;10132;50.864;5.176;2022-10-22T01:07:01;14.30;99.90
19941;DHT22;10132;50.864;5.176;2022-10-22T01:09:11;14.40;99.90
19941;DHT22;10132;50.864;5.176;2022-10-22T01:11:22;14.40;99.90
19941;DHT22;10132;50.864;5.176;2022-10-22T01:13:32;14.40;99.90
19941;DHT22;10132;50.864;5.176;2022-10-22T01:15:41;14.40;99.90
19941;DHT22;10132;50.864;5.176;2022-10-22T01:17:52;14.30;99.90
19941;DHT22;10132;50.864;5.176;2022-10-22T01:20:07;14.20;99.90
19941;DHT22;10132;50.864;5.176;2022-10-22T01:22:18;14.30;99.90
19941;DHT22;10132;50.864;5.176;2022-10-22T01:24:41;14.20;99.90
19941;DHT22;10132;50.864;5.176;2022-10-22T01:27:08;14.10;99.90
19941;DHT22;10132;50.864;5.176;2022-10-22T01:29:18;14.20;99.90
19941;DHT22;10132;50.864;5.176;2022-10-22T01:31:24;14.40;99.90
19941;DHT22;10132;50.864;5.176;2022-10-22T01:33:30;14.40;99.90
19941;DHT22;10132;50.864;5.176;2022-10-22T01:35:36;14.40;99.90
19941;DHT22;10132;50.864;5.176;2022-10-22T01:37:43;14.50;99.90
19941;DHT22;10132;50.864;5.176;2022-10-22T01:39:47;14.50;99.90
19941;DHT22;10132;50.864;5.176;2022-10-22T01:41:53;14.50;99.90
19941;DHT22;10132;50.864;5.176;2022-10-22T01:43:55;14.60;99.90
19941;DHT22;10132;50.864;5.176;2022-10-22T01:46:01;14.60;99.90
19941;DHT22;10132;50.864;5.176;2022-10-22T01:48:12;14.60;99.90
19941;DHT22;10132;50.864;5.176;2022-10-22T01:50:31;14.60;99.90
19941;DHT22;10132;50.864;5.176;2022-10-22T01:52:45;14.60;99.90
19941;DHT22;10132;50.864;5.176;2022-10-22T01:54:53;14.60;99.90
19941;DHT22;10132;50.864;5.176;2022-10-22T01:57:07;14.70;99.90
19941;DHT22;10132;50.864;5.176;2022-10-22T01:59:16;14.70;99.90
19941;DHT22;10132;50.864;5.176;2022-10-22T02:01:25;14.70;99.90
19941;DHT22;10132;50.864;5.176;2022-10-22T02:03:34;14.70;99.90
19941;DHT22;10132;50.864;5.176;2022-10-22T02:05:41;14.70;99.90
19941;DHT22;10132;50.864;5.176;2022-10-22T02:07:47;14.60;99.90
19941;DHT22;10132;50.864;5.176;2022-10-22T02:09:51;14.60;99.90
19941;DHT22;10132;50.864;5.176;2022-10-22T02:11:54;14.70;99.90
19941;DHT22;10132;50.864;5.176;2022-10-22T02:14:00;14.60;99.90
19941;DHT22;10132;50.864;5.176;2022-10-22T02:16:02;14.60;99.90
19941;DHT22;10132;50.864;5.176;2022-10-22T02:18:07;14.60;99.90
19941;DHT22;10132;50.864;5.176;2022-10-22T02:20:13;14.60;99.90
19941;DHT22;10132;50.864;5.176;2022-10-22T02:22:17;14.60;99.90
19941;DHT22;10132;50.864;5.176;2022-10-22T02:24:20;14.60;99.90
19941;DHT22;10132;50.864;5.176;2022-10-22T02:26:27;14.60;99.90
19941;DHT22;10132;50.864;5.176;2022-10-22T02:28:36;14.60;99.90
19941;DHT22;10132;50.864;5.176;2022-10-22T02:30:42;14.50;99.90
19941;DHT22;10132;50.864;5.176;2022-10-22T02:32:49;14.50;99.90
19941;DHT22;10132;50.864;5.176;2022-10-22T02:34:54;14.40;99.90
19941;DHT22;10132;50.864;5.176;2022-10-22T02:37:01;14.50;99.90
19941;DHT22;10132;50.864;5.176;2022-10-22T02:39:04;14.50;99.90
19941;DHT22;10132;50.864;5.176;2022-10-22T02:41:07;14.40;99.90
19941;DHT22;10132;50.864;5.176;2022-10-22T02:43:09;14.30;99.90
19941;DHT22;10132;50.864;5.176;2022-10-22T02:45:11;14.20;99.90
19941;DHT22;10132;50.864;5.176;2022-10-22T02:47:13;14.20;99.90
19941;DHT22;10132;50.864;5.176;2022-10-22T02:49:15;14.20;99.90
19941;DHT22;10132;50.864;5.176;2022-10-22T02:51:18;14.10;99.90
19941;DHT22;10132;50.864;5.176;2022-10-22T02:53:20;13.90;99.90
19941;DHT22;10132;50.864;5.176;2022-10-22T02:55:22;13.90;99.90
19941;DHT22;10132;50.864;5.176;2022-10-22T02:57:24;13.90;99.90
19941;DHT22;10132;50.864;5.176;2022-10-22T02:59:26;13.80;99.90
19941;DHT22;10132;50.864;5.176;2022-10-22T03:01:28;13.90;99.90
19941;DHT22;10132;50.864;5.176;2022-10-22T03:03:29;13.90;99.90
19941;DHT22;10132;50.864;5.176;2022-10-22T03:05:31;13.90;99.90
19941;DHT22;10132;50.864;5.176;2022-10-22T03:07:35;14.00;99.90
19941;DHT22;10132;50.864;5.176;2022-10-22T03:09:37;14.10;99.90
19941;DHT22;10132;50.864;5.176;2022-10-22T03:11:39;14.10;99.90
19941;DHT22;10132;50.864;5.176;2022-10-22T03:13:41;14.10;99.90
19941;DHT22;10132;50.864;5.176;2022-10-22T03:15:42;14.10;99.90
19941;DHT22;10132;50.864;5.176;2022-10-22T03:17:44;14.20;99.90
19941;DHT22;10132;50.864;5.176;2022-10-22T03:19:46;14.20;99.90
19941;DHT22;10132;50.864;5.176;2022-10-22T03:21:51;14.20;99.90
19941;DHT22;10132;50.864;5.176;2022-10-22T03:23:55;14.30;99.90
19941;DHT22;10132;50.864;5.176;2022-10-22T03:25:58;14.30;99.90
19941;DHT22;10132;50.864;5.176;2022-10-22T03:28:02;14.30;99.90
19941;DHT22;10132;50.864;5.176;2022-10-22T03:30:07;14.30;99.90
19941;DHT22;10132;50.864;5.176;2022-10-22T03:32:09;14.40;99.90
19941;DHT22;10132;50.864;5.176;2022-10-22T03:34:11;14.40;99.90
19941;DHT22;10132;50.864;5.176;2022-10-22T03:36:13;14.40;99.90
19941;DHT22;10132;50.864;5.176;2022-10-22T03:38:15;14.40;99.90
19941;DHT22;10132;50.864;5.176;2022-10-22T03:40:18;14.40;99.90
19941;DHT22;10132;50.864;5.176;2022-10-22T03:42:21;14.40;99.90
19941;DHT22;10132;50.864;5.176;2022-10-22T03:44:23;14.40;99.90
19941;DHT22;10132;50.864;5.176;2022-10-22T03:46:25;14.40;99.90
19941;DHT22;10132;50.864;5.176;2022-10-22T03:48:27;14.40;99.90
19941;DHT22;10132;50.864;5.176;2022-10-22T03:50:29;14.40;99.90
19941;DHT22;10132;50.864;5.176;2022-10-22T03:52:35;14.40;99.90
19941;DHT22;10132;50.864;5.176;2022-10-22T03:54:37;14.40;99.90
19941;DHT22;10132;50.864;5.176;2022-10-22T03:56:41;14.50;99.90
19941;DHT22;10132;50.864;5.176;2022-10-22T03:58:43;14.40;99.90
19941;DHT22;10132;50.864;5.176;2022-10-22T04:00:45;14.40;99.90
19941;DHT22;10132;50.864;5.176;2022-10-22T04:02:47;14.40;99.90
19941;DHT22;10132;50.864;5.176;2022-10-22T04:04:49;14.40;99.90
19941;DHT22;10132;50.864;5.176;2022-10-22T04:06:51;14.40;99.90
19941;DHT22;10132;50.864;5.176;2022-10-22T04:08:53;14.40;99.90
19941;DHT22;10132;50.864;5.176;2022-10-22T04:10:54;14.40;99.90
19941;DHT22;10132;50.864;5.176;2022-10-22T04:12:58;14.40;99.90
19941;DHT22;10132;50.864;5.176;2022-10-22T04:15:00;14.40;99.90
19941;DHT22;10132;50.864;5.176;2022-10-22T04:17:02;14.40;99.90
19941;DHT22;10132;50.864;5.176;2022-10-22T04:19:04;14.30;99.90
19941;DHT22;10132;50.864;5.176;2022-10-22T04:21:06;14.30;99.90
19941;DHT22;10132;50.864;5.176;2022-10-22T04:23:08;14.30;99.90
19941;DHT22;10132;50.864;5.176;2022-10-22T04:25:10;14.40;99.90
19941;DHT22;10132;50.864;5.176;2022-10-22T04:27:12;14.30;99.90
19941;DHT22;10132;50.864;5.176;2022-10-22T04:29:15;14.30;99.90
19941;DHT22;10132;50.864;5.176;2022-10-22T04:31:20;14.30;99.90
19941;DHT22;10132;50.864;5.176;2022-10-22T04:33:22;14.30;99.90
19941;DHT22;10132;50.864;5.176;2022-10-22T04:35:24;14.30;99.90
19941;DHT22;10132;50.864;5.176;2022-10-22T04:37:26;14.40;99.90
19941;DHT22;10132;50.864;5.176;2022-10-22T04:39:28;14.40;99.90
19941;DHT22;10132;50.864;5.176;2022-10-22T04:41:32;14.30;99.90
19941;DHT22;10132;50.864;5.176;2022-10-22T04:43:35;14.30;99.90
19941;DHT22;10132;50.864;5.176;2022-10-22T04:45:38;14.40;99.90
19941;DHT22;10132;50.864;5.176;2022-10-22T04:47:40;14.50;99.90
19941;DHT22;10132;50.864;5.176;2022-10-22T04:49:42;14.50;99.90
19941;DHT22;10132;50.864;5.176;2022-10-22T04:51:44;14.50;99.90
19941;DHT22;10132;50.864;5.176;2022-10-22T04:53:46;14.50;99.90
19941;DHT22;10132;50.864;5.176;2022-10-22T04:55:48;14.60;99.90
19941;DHT22;10132;50.864;5.176;2022-10-22T04:57:50;14.60;99.90
19941;DHT22;10132;50.864;5.176;2022-10-22T04:59:52;14.50;99.90
19941;DHT22;10132;50.864;5.176;2022-10-22T05:01:55;14.50;99.90
19941;DHT22;10132;50.864;5.176;2022-10-22T05:03:59;14.60;99.90
19941;DHT22;10132;50.864;5.176;2022-10-22T05:06:01;14.60;99.90
19941;DHT22;10132;50.864;5.176;2022-10-22T05:08:03;14.60;99.90
19941;DHT22;10132;50.864;5.176;2022-10-22T05:10:09;14.60;99.90
19941;DHT22;10132;50.864;5.176;2022-10-22T05:12:10;14.60;99.90
19941;DHT22;10132;50.864;5.176;2022-10-22T05:14:14;14.60;99.90
19941;DHT22;10132;50.864;5.176;2022-10-22T05:16:16;14.60;99.90
19941;DHT22;10132;50.864;5.176;2022-10-22T05:18:19;14.60;99.90
19941;DHT22;10132;50.864;5.176;2022-10-22T05:20:21;14.60;99.90
19941;DHT22;10132;50.864;5.176;2022-10-22T05:22:23;14.50;99.90
19941;DHT22;10132;50.864;5.176;2022-10-22T05:24:25;14.50;99.90
19941;DHT22;10132;50.864;5.176;2022-10-22T05:26:28;14.50;99.90
19941;DHT22;10132;50.864;5.176;2022-10-22T05:28:31;14.50;99.90
19941;DHT22;10132;50.864;5.176;2022-10-22T05:30:33;14.40;99.90
19941;DHT22;10132;50.864;5.176;2022-10-22T05:32:35;14.50;99.90
19941;DHT22;10132;50.864;5.176;2022-10-22T05:34:38;14.40;99.90
19941;DHT22;10132;50.864;5.176;2022-10-22T05:36:40;14.30;99.90
19941;DHT22;10132;50.864;5.176;2022-10-22T05:38:42;14.30;99.90
19941;DHT22;10132;50.864;5.176;2022-10-22T05:40:44;14.30;99.90
19941;DHT22;10132;50.864;5.176;2022-10-22T05:42:46;14.30;99.90
19941;DHT22;10132;50.864;5.176;2022-10-22T05:44:48;14.30;99.90
19941;DHT22;10132;50.864;5.176;2022-10-22T05:46:50;14.30;99.90
19941;DHT22;10132;50.864;5.176;2022-10-22T05:48:55;14.20;99.90
19941;DHT22;10132;50.864;5.176;2022-10-22T05:51:00;14.20;99.90
19941;DHT22;10132;50.864;5.176;2022-10-22T05:53:04;14.20;99.90
19941;DHT22;10132;50.864;5.176;2022-10-22T05:55:07;14.20;99.90
19941;DHT22;10132;50.864;5.176;2022-10-22T05:57:09;14.20;99.90
19941;DHT22;10132;50.864;5.176;2022-10-22T05:59:11;14.20;99.90
19941;DHT22;10132;50.864;5.176;2022-10-22T06:01:15;14.20;99.90
19941;DHT22;10132;50.864;5.176;2022-10-22T06:03:17;14.20;99.90
19941;DHT22;10132;50.864;5.176;2022-10-22T06:05:19;14.20;99.90
19941;DHT22;10132;50.864;5.176;2022-10-22T06:07:22;14.20;99.90
19941;DHT22;10132;50.864;5.176;2022-10-22T06:09:27;14.10;99.90
19941;DHT22;10132;50.864;5.176;2022-10-22T06:11:29;14.10;99.90
19941;DHT22;10132;50.864;5.176;2022-10-22T06:13:31;14.10;99.90
19941;DHT22;10132;50.864;5.176;2022-10-22T06:15:33;14.10;99.90
19941;DHT22;10132;50.864;5.176;2022-10-22T06:17:35;14.10;99.90
19941;DHT22;10132;50.864;5.176;2022-10-22T06:19:37;14.10;99.90
19941;DHT22;10132;50.864;5.176;2022-10-22T06:21:39;14.00;99.90
19941;DHT22;10132;50.864;5.176;2022-10-22T06:23:43;14.00;99.90
19941;DHT22;10132;50.864;5.176;2022-10-22T06:25:55;14.00;99.90
19941;DHT22;10132;50.864;5.176;2022-10-22T06:27:57;14.00;99.90
19941;DHT22;10132;50.864;5.176;2022-10-22T06:29:58;14.10;99.90
19941;DHT22;10132;50.864;5.176;2022-10-22T06:32:00;14.10;99.90
19941;DHT22;10132;50.864;5.176;2022-10-22T06:34:03;14.10;99.90
19941;DHT22;10132;50.864;5.176;2022-10-22T06:36:06;14.10;99.90
19941;DHT22;10132;50.864;5.176;2022-10-22T06:38:08;14.10;99.90
19941;DHT22;10132;50.864;5.176;2022-10-22T06:40:12;14.10;99.90
19941;DHT22;10132;50.864;5.176;2022-10-22T06:42:16;14.20;99.90
19941;DHT22;10132;50.864;5.176;2022-10-22T06:44:18;14.20;99.90
19941;DHT22;10132;50.864;5.176;2022-10-22T06:46:21;14.30;99.90
19941;DHT22;10132;50.864;5.176;2022-10-22T06:48:23;14.40;99.90
19941;DHT22;10132;50.864;5.176;2022-10-22T06:50:25;14.40;99.90
19941;DHT22;10132;50.864;5.176;2022-10-22T06:52:27;14.50;99.90
19941;DHT22;10132;50.864;5.176;2022-10-22T06:54:29;14.60;99.90
19941;DHT22;10132;50.864;5.176;2022-10-22T06:56:32;14.60;99.90
19941;DHT22;10132;50.864;5.176;2022-10-22T06:58:35;14.70;99.90
19941;DHT22;10132;50.864;5.176;2022-10-22T07:00:37;14.70;99.90
19941;DHT22;10132;50.864;5.176;2022-10-22T07:02:39;14.60;99.90
19941;DHT22;10132;50.864;5.176;2022-10-22T07:04:41;14.70;99.90
19941;DHT22;10132;50.864;5.176;2022-10-22T07:06:43;14.60;99.90
19941;DHT22;10132;50.864;5.176;2022-10-22T07:08:45;14.60;99.90
19941;DHT22;10132;50.864;5.176;2022-10-22T07:10:46;14.70;99.90
19941;DHT22;10132;50.864;5.176;2022-10-22T07:12:50;14.70;99.90
19941;DHT22;10132;50.864;5.176;2022-10-22T07:14:52;14.60;99.90
19941;DHT22;10132;50.864;5.176;2022-10-22T07:16:53;14.70;99.90
19941;DHT22;10132;50.864;5.176;2022-10-22T07:18:55;14.60;99.90
19941;DHT22;10132;50.864;5.176;2022-10-22T07:20:57;14.70;99.90
19941;DHT22;10132;50.864;5.176;2022-10-22T07:22:59;14.80;99.90
19941;DHT22;10132;50.864;5.176;2022-10-22T07:25:01;14.80;99.90
19941;DHT22;10132;50.864;5.176;2022-10-22T07:27:03;14.80;99.90
19941;DHT22;10132;50.864;5.176;2022-10-22T07:29:07;14.70;99.90
19941;DHT22;10132;50.864;5.176;2022-10-22T07:31:11;14.70;99.90
19941;DHT22;10132;50.864;5.176;2022-10-22T07:33:13;14.80;99.90
19941;DHT22;10132;50.864;5.176;2022-10-22T07:35:15;14.80;99.90
19941;DHT22;10132;50.864;5.176;2022-10-22T07:37:16;14.90;99.90
19941;DHT22;10132;50.864;5.176;2022-10-22T07:39:21;14.90;99.90
19941;DHT22;10132;50.864;5.176;2022-10-22T07:41:26;14.90;99.90
19941;DHT22;10132;50.864;5.176;2022-10-22T07:43:28;15.00;99.90
19941;DHT22;10132;50.864;5.176;2022-10-22T07:45:31;15.00;99.90
19941;DHT22;10132;50.864;5.176;2022-10-22T07:47:33;15.00;99.90
19941;DHT22;10132;50.864;5.176;2022-10-22T07:49:35;15.00;99.90
19941;DHT22;10132;50.864;5.176;2022-10-22T07:51:37;15.00;99.90
19941;DHT22;10132;50.864;5.176;2022-10-22T07:53:39;15.00;99.90
19941;DHT22;10132;50.864;5.176;2022-10-22T07:55:41;15.10;99.90
19941;DHT22;10132;50.864;5.176;2022-10-22T07:57:43;15.10;99.90
19941;DHT22;10132;50.864;5.176;2022-10-22T07:59:45;15.10;99.90
19941;DHT22;10132;50.864;5.176;2022-10-22T08:01:48;15.10;99.90
19941;DHT22;10132;50.864;5.176;2022-10-22T08:03:51;15.20;99.90
19941;DHT22;10132;50.864;5.176;2022-10-22T08:05:53;15.20;99.90
19941;DHT22;10132;50.864;5.176;2022-10-22T08:07:55;15.30;99.90
19941;DHT22;10132;50.864;5.176;2022-10-22T08:09:57;15.40;99.90
19941;DHT22;10132;50.864;5.176;2022-10-22T08:11:59;15.40;99.90
19941;DHT22;10132;50.864;5.176;2022-10-22T08:14:01;15.40;99.90
19941;DHT22;10132;50.864;5.176;2022-10-22T08:16:03;15.50;99.90
19941;DHT22;10132;50.864;5.176;2022-10-22T08:18:07;15.70;99.90
19941;DHT22;10132;50.864;5.176;2022-10-22T08:20:09;15.60;99.90
19941;DHT22;10132;50.864;5.176;2022-10-22T08:22:11;15.70;99.90
19941;DHT22;10132;50.864;5.176;2022-10-22T08:24:13;15.80;99.90
19941;DHT22;10132;50.864;5.176;2022-10-22T08:26:15;15.80;99.90
19941;DHT22;10132;50.864;5.176;2022-10-22T08:28:17;15.70;99.90
19941;DHT22;10132;50.864;5.176;2022-10-22T08:30:19;15.70;99.90
19941;DHT22;10132;50.864;5.176;2022-10-22T08:32:21;15.70;99.90
19941;DHT22;10132;50.864;5.176;2022-10-22T08:34:25;15.70;99.90
19941;DHT22;10132;50.864;5.176;2022-10-22T08:36:26;15.80;99.90
19941;DHT22;10132;50.864;5.176;2022-10-22T08:38:28;15.90;99.90
19941;DHT22;10132;50.864;5.176;2022-10-22T08:40:33;15.90;99.90
19941;DHT22;10132;50.864;5.176;2022-10-22T08:42:56;16.00;99.90
19941;DHT22;10132;50.864;5.176;2022-10-22T08:45:07;16.00;99.90
19941;DHT22;10132;50.864;5.176;2022-10-22T08:47:31;16.10;99.90
19941;DHT22;10132;50.864;5.176;2022-10-22T08:49:39;15.90;99.90
19941;DHT22;10132;50.864;5.176;2022-10-22T08:51:42;15.90;99.90
19941;DHT22;10132;50.864;5.176;2022-10-22T08:54:06;16.00;99.90
19941;DHT22;10132;50.864;5.176;2022-10-22T08:56:13;15.90;99.90
19941;DHT22;10132;50.864;5.176;2022-10-22T08:58:19;16.00;99.90
19941;DHT22;10132;50.864;5.176;2022-10-22T09:00:30;16.20;99.90
19941;DHT22;10132;50.864;5.176;2022-10-22T09:02:38;16.30;99.90
19941;DHT22;10132;50.864;5.176;2022-10-22T09:04:45;16.20;99.90
19941;DHT22;10132;50.864;5.176;2022-10-22T09:06:52;16.20;99.90
19941;DHT22;10132;50.864;5.176;2022-10-22T09:08:57;16.30;99.90
19941;DHT22;10132;50.864;5.176;2022-10-22T09:11:04;16.40;99.90
19941;DHT22;10132;50.864;5.176;2022-10-22T09:13:08;16.20;99.90
19941;DHT22;10132;50.864;5.176;2022-10-22T09:15:13;16.30;99.90
19941;DHT22;10132;50.864;5.176;2022-10-22T09:17:20;16.40;99.90
19941;DHT22;10132;50.864;5.176;2022-10-22T09:19:32;16.50;99.90
19941;DHT22;10132;50.864;5.176;2022-10-22T09:21:45;16.70;99.90
19941;DHT22;10132;50.864;5.176;2022-10-22T09:24:04;16.70;99.90
19941;DHT22;10132;50.864;5.176;2022-10-22T09:26:12;16.60;99.90
19941;DHT22;10132;50.864;5.176;2022-10-22T09:28:15;16.60;99.90
19941;DHT22;10132;50.864;5.176;2022-10-22T09:30:18;16.70;99.90
19941;DHT22;10132;50.864;5.176;2022-10-22T09:32:20;16.90;99.90
19941;DHT22;10132;50.864;5.176;2022-10-22T09:34:22;17.00;99.90
19941;DHT22;10132;50.864;5.176;2022-10-22T09:36:28;17.00;99.90
19941;DHT22;10132;50.864;5.176;2022-10-22T09:38:33;16.90;99.90
19941;DHT22;10132;50.864;5.176;2022-10-22T09:40:42;17.00;99.90
19941;DHT22;10132;50.864;5.176;2022-10-22T09:42:44;16.90;99.90
19941;DHT22;10132;50.864;5.176;2022-10-22T09:44:51;17.10;99.90
19941;DHT22;10132;50.864;5.176;2022-10-22T09:46:53;17.00;99.90
19941;DHT22;10132;50.864;5.176;2022-10-22T09:49:02;16.90;99.90
19941;DHT22;10132;50.864;5.176;2022-10-22T09:51:18;16.80;99.90
19941;DHT22;10132;50.864;5.176;2022-10-22T09:53:24;17.10;99.90
19941;DHT22;10132;50.864;5.176;2022-10-22T09:55:28;17.30;99.90
19941;DHT22;10132;50.864;5.176;2022-10-22T09:57:32;17.40;99.90
19941;DHT22;10132;50.864;5.176;2022-10-22T09:59:37;17.40;99.90
19941;DHT22;10132;50.864;5.176;2022-10-22T10:01:41;17.10;99.90
19941;DHT22;10132;50.864;5.176;2022-10-22T10:03:44;17.20;99.90
19941;DHT22;10132;50.864;5.176;2022-10-22T10:05:47;17.30;99.90
19941;DHT22;10132;50.864;5.176;2022-10-22T10:07:49;17.50;99.90
19941;DHT22;10132;50.864;5.176;2022-10-22T10:09:52;17.40;99.90
19941;DHT22;10132;50.864;5.176;2022-10-22T10:12:04;17.50;99.90
19941;DHT22;10132;50.864;5.176;2022-10-22T10:14:19;17.40;99.90
19941;DHT22;10132;50.864;5.176;2022-10-22T10:16:33;17.30;99.90
19941;DHT22;10132;50.864;5.176;2022-10-22T10:18:46;17.40;99.90
19941;DHT22;10132;50.864;5.176;2022-10-22T10:20:57;17.80;99.90
19941;DHT22;10132;50.864;5.176;2022-10-22T10:23:07;17.90;99.90
19941;DHT22;10132;50.864;5.176;2022-10-22T10:25:31;17.90;99.90
19941;DHT22;10132;50.864;5.176;2022-10-22T10:27:40;17.70;99.90
19941;DHT22;10132;50.864;5.176;2022-10-22T10:29:48;17.80;99.90
19941;DHT22;10132;50.864;5.176;2022-10-22T10:32:06;18.00;99.90
19941;DHT22;10132;50.864;5.176;2022-10-22T10:34:19;17.80;99.90
19941;DHT22;10132;50.864;5.176;2022-10-22T10:36:29;18.00;99.90
19941;DHT22;10132;50.864;5.176;2022-10-22T10:38:47;18.10;99.90
19941;DHT22;10132;50.864;5.176;2022-10-22T10:40:55;18.10;99.90
19941;DHT22;10132;50.864;5.176;2022-10-22T10:43:08;17.80;99.90
19941;DHT22;10132;50.864;5.176;2022-10-22T10:45:16;17.80;99.90
19941;DHT22;10132;50.864;5.176;2022-10-22T10:47:44;17.90;99.90
19941;DHT22;10132;50.864;5.176;2022-10-22T10:49:48;17.80;99.90
19941;DHT22;10132;50.864;5.176;2022-10-22T10:51:57;18.00;99.90
19941;DHT22;10132;50.864;5.176;2022-10-22T10:54:12;18.00;99.90
19941;DHT22;10132;50.864;5.176;2022-10-22T10:56:29;18.20;99.90
19941;DHT22;10132;50.864;5.176;2022-10-22T10:58:41;18.60;99.90
19941;DHT22;10132;50.864;5.176;2022-10-22T11:00:52;18.50;99.90
19941;DHT22;10132;50.864;5.176;2022-10-22T11:03:22;18.80;99.90
19941;DHT22;10132;50.864;5.176;2022-10-22T11:05:33;19.20;99.90
19941;DHT22;10132;50.864;5.176;2022-10-22T11:07:40;18.90;99.90
19941;DHT22;10132;50.864;5.176;2022-10-22T11:09:47;18.90;99.90
19941;DHT22;10132;50.864;5.176;2022-10-22T11:11:53;19.10;99.90
19941;DHT22;10132;50.864;5.176;2022-10-22T11:14:00;19.50;99.90
19941;DHT22;10132;50.864;5.176;2022-10-22T11:16:08;19.50;99.90
19941;DHT22;10132;50.864;5.176;2022-10-22T11:18:16;19.70;99.90
19941;DHT22;10132;50.864;5.176;2022-10-22T11:20:24;19.40;99.90
19941;DHT22;10132;50.864;5.176;2022-10-22T11:22:33;19.10;99.90
19941;DHT22;10132;50.864;5.176;2022-10-22T11:24:42;19.00;99.90
19941;DHT22;10132;50.864;5.176;2022-10-22T11:26:51;19.30;99.90
19941;DHT22;10132;50.864;5.176;2022-10-22T11:28:57;19.10;99.90
19941;DHT22;10132;50.864;5.176;2022-10-22T11:31:03;18.90;99.90
19941;DHT22;10132;50.864;5.176;2022-10-22T11:33:10;19.00;99.90
19941;DHT22;10132;50.864;5.176;2022-10-22T11:35:15;19.30;99.90
19941;DHT22;10132;50.864;5.176;2022-10-22T11:37:19;19.20;99.90
19941;DHT22;10132;50.864;5.176;2022-10-22T11:39:34;19.30;99.90
19941;DHT22;10132;50.864;5.176;2022-10-22T11:41:36;19.40;99.90
19941;DHT22;10132;50.864;5.176;2022-10-22T11:43:55;19.30;99.90
19941;DHT22;10132;50.864;5.176;2022-10-22T11:46:07;18.90;99.90
19941;DHT22;10132;50.864;5.176;2022-10-22T11:48:16;19.10;99.90
19941;DHT22;10132;50.864;5.176;2022-10-22T11:50:20;18.90;99.90
19941;DHT22;10132;50.864;5.176;2022-10-22T11:52:27;18.90;99.90
19941;DHT22;10132;50.864;5.176;2022-10-22T11:54:39;19.20;99.90
19941;DHT22;10132;50.864;5.176;2022-10-22T11:56:43;19.20;99.90
19941;DHT22;10132;50.864;5.176;2022-10-22T11:58:46;19.50;99.90
19941;DHT22;10132;50.864;5.176;2022-10-22T12:00:49;19.70;99.90
19941;DHT22;10132;50.864;5.176;2022-10-22T12:03:03;19.50;99.90
19941;DHT22;10132;50.864;5.176;2022-10-22T12:07:38;19.30;99.90
19941;DHT22;10132;50.864;5.176;2022-10-22T12:09:51;19.70;99.90
19941;DHT22;10132;50.864;5.176;2022-10-22T12:11:53;19.90;99.90
19941;DHT22;10132;50.864;5.176;2022-10-22T12:14:15;19.90;99.90
19941;DHT22;10132;50.864;5.176;2022-10-22T12:16:22;19.20;99.90
19941;DHT22;10132;50.864;5.176;2022-10-22T12:18:30;19.10;99.90
19941;DHT22;10132;50.864;5.176;2022-10-22T12:20:33;19.00;99.90
19941;DHT22;10132;50.864;5.176;2022-10-22T12:22:36;18.90;99.90
19941;DHT22;10132;50.864;5.176;2022-10-22T12:24:41;18.90;99.90
19941;DHT22;10132;50.864;5.176;2022-10-22T12:26:45;18.90;99.90
19941;DHT22;10132;50.864;5.176;2022-10-22T12:28:49;18.60;99.90
19941;DHT22;10132;50.864;5.176;2022-10-22T12:30:51;18.50;99.90
19941;DHT22;10132;50.864;5.176;2022-10-22T12:32:54;18.40;99.90
19941;DHT22;10132;50.864;5.176;2022-10-22T12:35:03;18.50;99.90
19941;DHT22;10132;50.864;5.176;2022-10-22T12:37:06;18.90;99.90
19941;DHT22;10132;50.864;5.176;2022-10-22T12:39:15;19.40;99.90
19941;DHT22;10132;50.864;5.176;2022-10-22T12:41:17;19.80;99.90
19941;DHT22;10132;50.864;5.176;2022-10-22T12:43:23;20.10;99.90
19941;DHT22;10132;50.864;5.176;2022-10-22T12:45:28;20.30;99.90
19941;DHT22;10132;50.864;5.176;2022-10-22T12:47:30;20.20;99.90
19941;DHT22;10132;50.864;5.176;2022-10-22T12:49:35;20.30;99.90
19941;DHT22;10132;50.864;5.176;2022-10-22T12:51:40;20.60;99.90
19941;DHT22;10132;50.864;5.176;2022-10-22T12:53:45;20.70;99.90
19941;DHT22;10132;50.864;5.176;2022-10-22T12:55:50;20.60;99.90
19941;DHT22;10132;50.864;5.176;2022-10-22T12:57:52;20.50;99.90
19941;DHT22;10132;50.864;5.176;2022-10-22T12:59:54;20.50;99.90
19941;DHT22;10132;50.864;5.176;2022-10-22T13:01:56;20.60;99.90
19941;DHT22;10132;50.864;5.176;2022-10-22T13:04:16;20.60;99.90
19941;DHT22;10132;50.864;5.176;2022-10-22T13:06:24;20.40;99.90
19941;DHT22;10132;50.864;5.176;2022-10-22T13:08:27;20.40;99.90
19941;DHT22;10132;50.864;5.176;2022-10-22T13:10:32;20.50;99.90
19941;DHT22;10132;50.864;5.176;2022-10-22T13:12:35;20.50;99.90
19941;DHT22;10132;50.864;5.176;2022-10-22T13:14:38;20.30;99.90